Terminal Aerodrome Forecast
Issued by NWS

Home | Current Version | Previous Version | Text Only | Print | Product List | Glossary Off
Versions: 1 2 3 4 5 6 7 8 9 10 11 12 13 14 15 16 17 18 19 20 21 22 23 24 25 26

000
FTUS42 KMHX 030227 AAA
TAFPGV
TAF AMD
KPGV 030227Z 0302/0324 VRB03KT P6SM VCTS BKN050CB
      TEMPO 0302/0304 09008G15KT 4SM BR
     FM030700 00000KT 3SM BR SCT080
     FM031300 34005KT P6SM FEW050
      AMD LTD TO CLD VIS AND WIND=

USA.gov is the U.S. government's official web portal to all federal, state and local government web resources and services.